sensor_id;sensor_type;location;lat;lon;timestamp;P1;durP1;ratioP1;P2;durP2;ratioP2
22922;SDS011;11627;51.322;22.816;2022-09-12T00:00:47;4.10;;;2.83;;
22922;SDS011;11627;51.322;22.816;2022-09-12T00:03:14;4.07;;;2.63;;
22922;SDS011;11627;51.322;22.816;2022-09-12T00:05:40;5.70;;;3.40;;
22922;SDS011;11627;51.322;22.816;2022-09-12T00:08:11;3.55;;;2.47;;
22922;SDS011;11627;51.322;22.816;2022-09-12T00:10:42;3.80;;;2.75;;
22922;SDS011;11627;51.322;22.816;2022-09-12T00:13:09;2.92;;;2.42;;
22922;SDS011;11627;51.322;22.816;2022-09-12T00:15:39;4.85;;;2.72;;
22922;SDS011;11627;51.322;22.816;2022-09-12T00:18:08;4.88;;;2.58;;
22922;SDS011;11627;51.322;22.816;2022-09-12T00:20:41;4.25;;;2.40;;
22922;SDS011;11627;51.322;22.816;2022-09-12T00:23:09;3.67;;;2.60;;
22922;SDS011;11627;51.322;22.816;2022-09-12T00:25:46;3.25;;;2.80;;
22922;SDS011;11627;51.322;22.816;2022-09-12T00:28:15;2.83;;;2.15;;
22922;SDS011;11627;51.322;22.816;2022-09-12T00:30:44;3.05;;;2.47;;
22922;SDS011;11627;51.322;22.816;2022-09-12T00:33:13;3.55;;;2.58;;
22922;SDS011;11627;51.322;22.816;2022-09-12T00:35:44;5.53;;;2.20;;
22922;SDS011;11627;51.322;22.816;2022-09-12T00:38:17;3.22;;;2.13;;
22922;SDS011;11627;51.322;22.816;2022-09-12T00:40:44;3.15;;;2.20;;
22922;SDS011;11627;51.322;22.816;2022-09-12T00:54:33;2.72;;;2.25;;
22922;SDS011;11627;51.322;22.816;2022-09-12T00:57:19;6.20;;;2.20;;
22922;SDS011;11627;51.322;22.816;2022-09-12T00:59:52;2.25;;;2.00;;
22922;SDS011;11627;51.322;22.816;2022-09-12T01:02:23;3.38;;;2.40;;
22922;SDS011;11627;51.322;22.816;2022-09-12T01:04:50;4.18;;;2.40;;
22922;SDS011;11627;51.322;22.816;2022-09-12T01:07:16;2.72;;;1.70;;
22922;SDS011;11627;51.322;22.816;2022-09-12T01:09:43;3.53;;;2.10;;
22922;SDS011;11627;51.322;22.816;2022-09-12T01:12:10;3.95;;;2.40;;
22922;SDS011;11627;51.322;22.816;2022-09-12T01:14:37;2.60;;;2.15;;
22922;SDS011;11627;51.322;22.816;2022-09-12T01:17:04;2.00;;;1.73;;
22922;SDS011;11627;51.322;22.816;2022-09-12T01:40:11;2.28;;;1.92;;
22922;SDS011;11627;51.322;22.816;2022-09-12T01:51:41;2.55;;;2.30;;
22922;SDS011;11627;51.322;22.816;2022-09-12T01:54:38;4.13;;;2.28;;
22922;SDS011;11627;51.322;22.816;2022-09-12T01:57:35;2.35;;;2.10;;
22922;SDS011;11627;51.322;22.816;2022-09-12T02:00:08;2.85;;;2.40;;
22922;SDS011;11627;51.322;22.816;2022-09-12T02:05:16;3.70;;;2.25;;
22922;SDS011;11627;51.322;22.816;2022-09-12T02:10:57;3.45;;;2.70;;
22922;SDS011;11627;51.322;22.816;2022-09-12T02:16:15;3.25;;;2.20;;
22922;SDS011;11627;51.322;22.816;2022-09-12T02:18:51;3.35;;;2.55;;
22922;SDS011;11627;51.322;22.816;2022-09-12T02:21:21;2.50;;;2.30;;
22922;SDS011;11627;51.322;22.816;2022-09-12T02:23:52;2.72;;;2.30;;
22922;SDS011;11627;51.322;22.816;2022-09-12T02:26:33;4.28;;;2.83;;
22922;SDS011;11627;51.322;22.816;2022-09-12T02:29:25;2.58;;;2.28;;
22922;SDS011;11627;51.322;22.816;2022-09-12T02:31:58;2.88;;;2.47;;
22922;SDS011;11627;51.322;22.816;2022-09-12T02:34:50;2.65;;;2.30;;
22922;SDS011;11627;51.322;22.816;2022-09-12T02:40:34;2.40;;;2.17;;
22922;SDS011;11627;51.322;22.816;2022-09-12T02:43:01;2.97;;;2.60;;
22922;SDS011;11627;51.322;22.816;2022-09-12T02:45:29;4.32;;;2.58;;
22922;SDS011;11627;51.322;22.816;2022-09-12T02:48:02;2.70;;;2.50;;
22922;SDS011;11627;51.322;22.816;2022-09-12T02:50:42;3.75;;;2.55;;
22922;SDS011;11627;51.322;22.816;2022-09-12T02:53:08;4.00;;;2.45;;
22922;SDS011;11627;51.322;22.816;2022-09-12T02:55:36;4.40;;;2.50;;
22922;SDS011;11627;51.322;22.816;2022-09-12T02:58:06;3.03;;;2.53;;
22922;SDS011;11627;51.322;22.816;2022-09-12T03:01:22;3.00;;;2.70;;
22922;SDS011;11627;51.322;22.816;2022-09-12T03:15:50;3.05;;;2.72;;
22922;SDS011;11627;51.322;22.816;2022-09-12T03:29:52;2.88;;;2.45;;
22922;SDS011;11627;51.322;22.816;2022-09-12T03:32:19;3.00;;;2.60;;
22922;SDS011;11627;51.322;22.816;2022-09-12T03:35:05;5.45;;;2.22;;
22922;SDS011;11627;51.322;22.816;2022-09-12T03:37:32;2.88;;;2.35;;
22922;SDS011;11627;51.322;22.816;2022-09-12T03:39:59;1.90;;;1.80;;
22922;SDS011;11627;51.322;22.816;2022-09-12T03:42:25;3.25;;;2.22;;
22922;SDS011;11627;51.322;22.816;2022-09-12T03:44:50;2.47;;;2.17;;
22922;SDS011;11627;51.322;22.816;2022-09-12T03:47:16;2.38;;;2.17;;
22922;SDS011;11627;51.322;22.816;2022-09-12T03:49:44;3.05;;;2.42;;
22922;SDS011;11627;51.322;22.816;2022-09-12T03:52:10;2.35;;;2.03;;
22922;SDS011;11627;51.322;22.816;2022-09-12T03:54:36;3.28;;;1.65;;
22922;SDS011;11627;51.322;22.816;2022-09-12T03:57:03;2.83;;;2.00;;
22922;SDS011;11627;51.322;22.816;2022-09-12T03:59:29;3.20;;;2.15;;
22922;SDS011;11627;51.322;22.816;2022-09-12T04:01:57;3.17;;;2.08;;
22922;SDS011;11627;51.322;22.816;2022-09-12T04:04:23;2.40;;;2.17;;
22922;SDS011;11627;51.322;22.816;2022-09-12T04:06:49;4.90;;;2.00;;
22922;SDS011;11627;51.322;22.816;2022-09-12T04:09:14;2.28;;;1.80;;
22922;SDS011;11627;51.322;22.816;2022-09-12T04:11:41;2.17;;;1.70;;
22922;SDS011;11627;51.322;22.816;2022-09-12T04:14:06;4.72;;;1.98;;
22922;SDS011;11627;51.322;22.816;2022-09-12T04:16:32;1.90;;;1.63;;
22922;SDS011;11627;51.322;22.816;2022-09-12T04:18:58;1.90;;;1.60;;
22922;SDS011;11627;51.322;22.816;2022-09-12T04:21:24;2.00;;;1.80;;
22922;SDS011;11627;51.322;22.816;2022-09-12T04:23:50;3.75;;;1.52;;
22922;SDS011;11627;51.322;22.816;2022-09-12T04:26:17;3.15;;;2.08;;
22922;SDS011;11627;51.322;22.816;2022-09-12T04:28:46;2.40;;;1.90;;
22922;SDS011;11627;51.322;22.816;2022-09-12T04:31:16;3.70;;;1.92;;
22922;SDS011;11627;51.322;22.816;2022-09-12T04:33:44;2.10;;;1.90;;
22922;SDS011;11627;51.322;22.816;2022-09-12T04:36:14;2.60;;;1.98;;
22922;SDS011;11627;51.322;22.816;2022-09-12T04:38:42;2.15;;;1.70;;
22922;SDS011;11627;51.322;22.816;2022-09-12T04:41:10;2.63;;;2.08;;
22922;SDS011;11627;51.322;22.816;2022-09-12T04:43:39;2.10;;;1.90;;
22922;SDS011;11627;51.322;22.816;2022-09-12T04:46:07;2.47;;;2.10;;
22922;SDS011;11627;51.322;22.816;2022-09-12T04:48:35;2.58;;;1.73;;
22922;SDS011;11627;51.322;22.816;2022-09-12T04:53:32;2.22;;;2.03;;
22922;SDS011;11627;51.322;22.816;2022-09-12T04:56:05;2.10;;;1.90;;
22922;SDS011;11627;51.322;22.816;2022-09-12T04:58:34;1.73;;;1.63;;
22922;SDS011;11627;51.322;22.816;2022-09-12T05:01:04;2.25;;;1.85;;
22922;SDS011;11627;51.322;22.816;2022-09-12T05:03:45;2.78;;;2.58;;
22922;SDS011;11627;51.322;22.816;2022-09-12T05:06:22;2.28;;;1.98;;
22922;SDS011;11627;51.322;22.816;2022-09-12T05:08:51;2.20;;;2.00;;
22922;SDS011;11627;51.322;22.816;2022-09-12T05:11:21;2.95;;;1.65;;
22922;SDS011;11627;51.322;22.816;2022-09-12T05:13:50;2.08;;;1.88;;
22922;SDS011;11627;51.322;22.816;2022-09-12T05:16:17;2.05;;;1.85;;
22922;SDS011;11627;51.322;22.816;2022-09-12T05:18:44;2.53;;;1.60;;
22922;SDS011;11627;51.322;22.816;2022-09-12T05:21:11;1.67;;;1.58;;
22922;SDS011;11627;51.322;22.816;2022-09-12T05:23:39;2.20;;;1.60;;
22922;SDS011;11627;51.322;22.816;2022-09-12T05:26:06;2.05;;;1.60;;
22922;SDS011;11627;51.322;22.816;2022-09-12T05:28:37;2.83;;;1.60;;
22922;SDS011;11627;51.322;22.816;2022-09-12T05:31:13;1.50;;;1.40;;
22922;SDS011;11627;51.322;22.816;2022-09-12T05:33:42;1.83;;;1.45;;
22922;SDS011;11627;51.322;22.816;2022-09-12T05:36:13;1.67;;;1.58;;
22922;SDS011;11627;51.322;22.816;2022-09-12T05:38:46;3.92;;;1.70;;
22922;SDS011;11627;51.322;22.816;2022-09-12T05:41:13;2.25;;;1.65;;
22922;SDS011;11627;51.322;22.816;2022-09-12T05:43:45;2.08;;;1.88;;
22922;SDS011;11627;51.322;22.816;2022-09-12T05:46:19;2.15;;;1.70;;
22922;SDS011;11627;51.322;22.816;2022-09-12T05:48:48;1.80;;;1.70;;
22922;SDS011;11627;51.322;22.816;2022-09-12T05:51:15;2.00;;;1.73;;
22922;SDS011;11627;51.322;22.816;2022-09-12T05:53:54;2.08;;;1.58;;
22922;SDS011;11627;51.322;22.816;2022-09-12T05:56:24;4.57;;;1.63;;
22922;SDS011;11627;51.322;22.816;2022-09-12T05:59:03;1.77;;;1.60;;
22922;SDS011;11627;51.322;22.816;2022-09-12T06:01:32;2.03;;;1.48;;
22922;SDS011;11627;51.322;22.816;2022-09-12T06:04:01;1.70;;;1.60;;
22922;SDS011;11627;51.322;22.816;2022-09-12T06:06:30;2.53;;;1.70;;
22922;SDS011;11627;51.322;22.816;2022-09-12T06:08:59;1.83;;;1.73;;
22922;SDS011;11627;51.322;22.816;2022-09-12T06:11:28;2.28;;;1.70;;
22922;SDS011;11627;51.322;22.816;2022-09-12T06:13:57;3.70;;;1.88;;
22922;SDS011;11627;51.322;22.816;2022-09-12T06:16:25;3.33;;;1.77;;
22922;SDS011;11627;51.322;22.816;2022-09-12T06:18:54;2.13;;;1.42;;
22922;SDS011;11627;51.322;22.816;2022-09-12T06:21:23;2.58;;;1.88;;
22922;SDS011;11627;51.322;22.816;2022-09-12T06:23:51;1.70;;;1.60;;
22922;SDS011;11627;51.322;22.816;2022-09-12T06:26:19;2.80;;;1.90;;
22922;SDS011;11627;51.322;22.816;2022-09-12T06:28:47;2.08;;;1.98;;
22922;SDS011;11627;51.322;22.816;2022-09-12T06:31:16;1.83;;;1.55;;
22922;SDS011;11627;51.322;22.816;2022-09-12T06:33:58;1.80;;;1.65;;
22922;SDS011;11627;51.322;22.816;2022-09-12T06:36:27;1.58;;;1.48;;
22922;SDS011;11627;51.322;22.816;2022-09-12T06:38:57;1.88;;;1.70;;
22922;SDS011;11627;51.322;22.816;2022-09-12T06:41:27;1.60;;;1.50;;
22922;SDS011;11627;51.322;22.816;2022-09-12T06:43:55;1.70;;;1.60;;
22922;SDS011;11627;51.322;22.816;2022-09-12T06:46:21;1.77;;;1.55;;
22922;SDS011;11627;51.322;22.816;2022-09-12T06:48:47;5.55;;;1.48;;
22922;SDS011;11627;51.322;22.816;2022-09-12T06:51:15;2.80;;;1.70;;
22922;SDS011;11627;51.322;22.816;2022-09-12T06:53:43;3.78;;;1.90;;
22922;SDS011;11627;51.322;22.816;2022-09-12T06:56:19;2.53;;;1.50;;
22922;SDS011;11627;51.322;22.816;2022-09-12T06:58:49;1.95;;;1.80;;
22922;SDS011;11627;51.322;22.816;2022-09-12T07:01:26;4.45;;;1.73;;
22922;SDS011;11627;51.322;22.816;2022-09-12T07:03:56;2.55;;;1.80;;
22922;SDS011;11627;51.322;22.816;2022-09-12T07:06:25;3.97;;;1.98;;
22922;SDS011;11627;51.322;22.816;2022-09-12T07:08:56;4.15;;;2.00;;
22922;SDS011;11627;51.322;22.816;2022-09-12T07:11:24;2.17;;;1.98;;
22922;SDS011;11627;51.322;22.816;2022-09-12T07:13:54;2.08;;;1.92;;
22922;SDS011;11627;51.322;22.816;2022-09-12T07:16:22;2.20;;;2.00;;
22922;SDS011;11627;51.322;22.816;2022-09-12T07:18:49;2.70;;;1.90;;
22922;SDS011;11627;51.322;22.816;2022-09-12T07:21:16;2.25;;;2.05;;
22922;SDS011;11627;51.322;22.816;2022-09-12T07:23:42;2.20;;;1.88;;
22922;SDS011;11627;51.322;22.816;2022-09-12T07:26:10;2.80;;;1.88;;
22922;SDS011;11627;51.322;22.816;2022-09-12T07:28:37;2.85;;;2.20;;
22922;SDS011;11627;51.322;22.816;2022-09-12T07:31:08;1.83;;;1.73;;
22922;SDS011;11627;51.322;22.816;2022-09-12T07:33:37;2.92;;;2.13;;
22922;SDS011;11627;51.322;22.816;2022-09-12T07:36:05;1.90;;;1.80;;
22922;SDS011;11627;51.322;22.816;2022-09-12T07:38:36;2.40;;;2.20;;
22922;SDS011;11627;51.322;22.816;2022-09-12T07:41:22;2.97;;;1.90;;
22922;SDS011;11627;51.322;22.816;2022-09-12T07:43:57;2.25;;;2.10;;
22922;SDS011;11627;51.322;22.816;2022-09-12T07:46:25;4.45;;;2.42;;
22922;SDS011;11627;51.322;22.816;2022-09-12T07:48:54;2.28;;;2.08;;
22922;SDS011;11627;51.322;22.816;2022-09-12T07:51:22;2.95;;;2.60;;
22922;SDS011;11627;51.322;22.816;2022-09-12T07:53:49;2.97;;;2.35;;
22922;SDS011;11627;51.322;22.816;2022-09-12T07:56:16;3.33;;;2.67;;
22922;SDS011;11627;51.322;22.816;2022-09-12T07:58:43;2.03;;;1.83;;
22922;SDS011;11627;51.322;22.816;2022-09-12T08:01:11;2.42;;;2.22;;
22922;SDS011;11627;51.322;22.816;2022-09-12T08:03:43;5.32;;;2.25;;
22922;SDS011;11627;51.322;22.816;2022-09-12T08:06:21;3.42;;;2.38;;
22922;SDS011;11627;51.322;22.816;2022-09-12T08:08:50;3.22;;;2.38;;
22922;SDS011;11627;51.322;22.816;2022-09-12T08:11:19;2.35;;;2.15;;
22922;SDS011;11627;51.322;22.816;2022-09-12T08:13:47;2.50;;;2.30;;
22922;SDS011;11627;51.322;22.816;2022-09-12T08:16:19;2.90;;;2.30;;
22922;SDS011;11627;51.322;22.816;2022-09-12T08:18:48;2.28;;;2.08;;
22922;SDS011;11627;51.322;22.816;2022-09-12T08:21:19;2.95;;;2.28;;
22922;SDS011;11627;51.322;22.816;2022-09-12T08:23:51;3.05;;;2.30;;
22922;SDS011;11627;51.322;22.816;2022-09-12T08:26:25;3.20;;;2.30;;
22922;SDS011;11627;51.322;22.816;2022-09-12T08:28:53;3.88;;;2.60;;
22922;SDS011;11627;51.322;22.816;2022-09-12T08:31:20;3.05;;;2.75;;
22922;SDS011;11627;51.322;22.816;2022-09-12T08:33:48;2.50;;;2.30;;
22922;SDS011;11627;51.322;22.816;2022-09-12T08:36:15;2.70;;;2.50;;
22922;SDS011;11627;51.322;22.816;2022-09-12T08:38:44;3.33;;;2.70;;
22922;SDS011;11627;51.322;22.816;2022-09-12T08:41:28;3.67;;;2.53;;
22922;SDS011;11627;51.322;22.816;2022-09-12T08:44:17;2.50;;;2.30;;
22922;SDS011;11627;51.322;22.816;2022-09-12T08:50:02;3.15;;;2.72;;
22922;SDS011;11627;51.322;22.816;2022-09-12T08:52:39;2.70;;;2.40;;
22922;SDS011;11627;51.322;22.816;2022-09-12T08:55:51;2.55;;;2.35;;
22922;SDS011;11627;51.322;22.816;2022-09-12T08:58:19;2.25;;;2.03;;
22922;SDS011;11627;51.322;22.816;2022-09-12T09:06:31;3.20;;;2.80;;
22922;SDS011;11627;51.322;22.816;2022-09-12T09:09:48;2.65;;;2.10;;
22922;SDS011;11627;51.322;22.816;2022-09-12T09:17:50;3.50;;;2.55;;
22922;SDS011;11627;51.322;22.816;2022-09-12T09:23:28;4.85;;;2.90;;
22922;SDS011;11627;51.322;22.816;2022-09-12T09:26:05;3.08;;;2.60;;
22922;SDS011;11627;51.322;22.816;2022-09-12T09:28:47;2.83;;;2.40;;
22922;SDS011;11627;51.322;22.816;2022-09-12T09:31:25;4.07;;;2.42;;
22922;SDS011;11627;51.322;22.816;2022-09-12T09:34:05;4.35;;;2.40;;
22922;SDS011;11627;51.322;22.816;2022-09-12T09:36:47;2.95;;;2.50;;
22922;SDS011;11627;51.322;22.816;2022-09-12T09:45:10;2.78;;;1.92;;
22922;SDS011;11627;51.322;22.816;2022-09-12T09:47:48;2.50;;;2.30;;
22922;SDS011;11627;51.322;22.816;2022-09-12T09:50:24;3.25;;;2.70;;
22922;SDS011;11627;51.322;22.816;2022-09-12T09:52:51;4.15;;;2.38;;
22922;SDS011;11627;51.322;22.816;2022-09-12T09:55:23;3.35;;;2.22;;
22922;SDS011;11627;51.322;22.816;2022-09-12T09:57:55;2.22;;;2.03;;
22922;SDS011;11627;51.322;22.816;2022-09-12T10:00:30;3.15;;;2.20;;
22922;SDS011;11627;51.322;22.816;2022-09-12T10:03:00;2.20;;;1.92;;
22922;SDS011;11627;51.322;22.816;2022-09-12T10:05:29;2.83;;;2.58;;
22922;SDS011;11627;51.322;22.816;2022-09-12T10:07:58;7.00;;;2.58;;
22922;SDS011;11627;51.322;22.816;2022-09-12T10:10:24;3.00;;;2.65;;
22922;SDS011;11627;51.322;22.816;2022-09-12T10:13:21;4.50;;;2.60;;
22922;SDS011;11627;51.322;22.816;2022-09-12T10:15:58;3.95;;;2.78;;
22922;SDS011;11627;51.322;22.816;2022-09-12T10:18:37;3.15;;;2.70;;
22922;SDS011;11627;51.322;22.816;2022-09-12T10:24:29;5.57;;;2.60;;
22922;SDS011;11627;51.322;22.816;2022-09-12T10:30:15;3.00;;;2.50;;
22922;SDS011;11627;51.322;22.816;2022-09-12T10:32:45;3.55;;;2.80;;
22922;SDS011;11627;51.322;22.816;2022-09-12T10:35:16;2.92;;;2.60;;
22922;SDS011;11627;51.322;22.816;2022-09-12T10:38:02;3.53;;;2.80;;
22922;SDS011;11627;51.322;22.816;2022-09-12T10:43:17;3.25;;;2.67;;
22922;SDS011;11627;51.322;22.816;2022-09-12T10:48:41;2.35;;;2.15;;
22922;SDS011;11627;51.322;22.816;2022-09-12T10:53:54;3.28;;;2.97;;
22922;SDS011;11627;51.322;22.816;2022-09-12T10:56:28;3.42;;;2.90;;
22922;SDS011;11627;51.322;22.816;2022-09-12T11:02:28;4.03;;;3.10;;
22922;SDS011;11627;51.322;22.816;2022-09-12T11:05:11;4.50;;;3.00;;
22922;SDS011;11627;51.322;22.816;2022-09-12T11:11:17;2.80;;;2.60;;
22922;SDS011;11627;51.322;22.816;2022-09-12T11:25:30;4.57;;;3.97;;
22922;SDS011;11627;51.322;22.816;2022-09-12T11:28:30;3.35;;;3.05;;
22922;SDS011;11627;51.322;22.816;2022-09-12T11:46:00;3.30;;;3.00;;
22922;SDS011;11627;51.322;22.816;2022-09-12T12:03:25;3.35;;;3.05;;
22922;SDS011;11627;51.322;22.816;2022-09-12T12:06:11;3.28;;;2.95;;
22922;SDS011;11627;51.322;22.816;2022-09-12T12:08:45;5.07;;;3.00;;
22922;SDS011;11627;51.322;22.816;2022-09-12T12:11:15;3.28;;;2.97;;
22922;SDS011;11627;51.322;22.816;2022-09-12T12:14:21;4.28;;;3.00;;
22922;SDS011;11627;51.322;22.816;2022-09-12T12:16:54;3.20;;;2.88;;
22922;SDS011;11627;51.322;22.816;2022-09-12T12:35:44;4.47;;;3.67;;
22922;SDS011;11627;51.322;22.816;2022-09-12T12:38:35;4.90;;;3.90;;
22922;SDS011;11627;51.322;22.816;2022-09-12T12:46:10;4.85;;;4.32;;
22922;SDS011;11627;51.322;22.816;2022-09-12T12:48:49;5.65;;;4.35;;
22922;SDS011;11627;51.322;22.816;2022-09-12T12:54:08;5.82;;;4.35;;
22922;SDS011;11627;51.322;22.816;2022-09-12T12:59:51;5.15;;;4.60;;
22922;SDS011;11627;51.322;22.816;2022-09-12T13:04:57;4.55;;;3.65;;
22922;SDS011;11627;51.322;22.816;2022-09-12T13:07:34;3.97;;;3.58;;
22922;SDS011;11627;51.322;22.816;2022-09-12T13:10:03;4.10;;;3.40;;
22922;SDS011;11627;51.322;22.816;2022-09-12T13:12:52;5.35;;;3.47;;
22922;SDS011;11627;51.322;22.816;2022-09-12T13:18:11;4.15;;;3.75;;
22922;SDS011;11627;51.322;22.816;2022-09-12T13:20:46;4.50;;;3.83;;
22922;SDS011;11627;51.322;22.816;2022-09-12T13:23:29;4.57;;;4.15;;
22922;SDS011;11627;51.322;22.816;2022-09-12T13:25:57;4.13;;;3.72;;
22922;SDS011;11627;51.322;22.816;2022-09-12T13:28:25;5.32;;;4.00;;
22922;SDS011;11627;51.322;22.816;2022-09-12T13:33:33;4.38;;;3.97;;
22922;SDS011;11627;51.322;22.816;2022-09-12T13:44:44;5.20;;;4.70;;
22922;SDS011;11627;51.322;22.816;2022-09-12T13:47:38;5.68;;;5.13;;
22922;SDS011;11627;51.322;22.816;2022-09-12T13:50:18;5.20;;;4.65;;
22922;SDS011;11627;51.322;22.816;2022-09-12T13:52:51;5.22;;;4.75;;
22922;SDS011;11627;51.322;22.816;2022-09-12T13:58:00;4.68;;;4.15;;
22922;SDS011;11627;51.322;22.816;2022-09-12T14:00:30;4.50;;;4.10;;
22922;SDS011;11627;51.322;22.816;2022-09-12T14:02:59;6.05;;;4.30;;
22922;SDS011;11627;51.322;22.816;2022-09-12T14:05:45;4.80;;;4.30;;
22922;SDS011;11627;51.322;22.816;2022-09-12T14:08:19;4.38;;;3.97;;
22922;SDS011;11627;51.322;22.816;2022-09-12T14:10:47;6.88;;;3.65;;
22922;SDS011;11627;51.322;22.816;2022-09-12T14:13:19;3.90;;;3.53;;
22922;SDS011;11627;51.322;22.816;2022-09-12T14:15:49;6.10;;;4.20;;
22922;SDS011;11627;51.322;22.816;2022-09-12T14:18:22;3.92;;;3.58;;
22922;SDS011;11627;51.322;22.816;2022-09-12T14:20:57;3.97;;;3.58;;
22922;SDS011;11627;51.322;22.816;2022-09-12T14:23:39;4.25;;;3.70;;
22922;SDS011;11627;51.322;22.816;2022-09-12T14:26:08;3.70;;;3.40;;
22922;SDS011;11627;51.322;22.816;2022-09-12T14:28:40;4.65;;;3.50;;
22922;SDS011;11627;51.322;22.816;2022-09-12T14:34:11;3.28;;;2.97;;
22922;SDS011;11627;51.322;22.816;2022-09-12T14:36:49;5.97;;;3.63;;
22922;SDS011;11627;51.322;22.816;2022-09-12T14:39:23;3.63;;;3.33;;
22922;SDS011;11627;51.322;22.816;2022-09-12T14:42:24;3.83;;;3.53;;
22922;SDS011;11627;51.322;22.816;2022-09-12T14:44:58;3.88;;;3.58;;
22922;SDS011;11627;51.322;22.816;2022-09-12T14:47:39;4.78;;;3.70;;
22922;SDS011;11627;51.322;22.816;2022-09-12T14:50:18;4.07;;;3.67;;
22922;SDS011;11627;51.322;22.816;2022-09-12T14:53:10;4.03;;;3.58;;
22922;SDS011;11627;51.322;22.816;2022-09-12T14:56:10;4.93;;;4.05;;
22922;SDS011;11627;51.322;22.816;2022-09-12T14:58:40;4.30;;;3.90;;
22922;SDS011;11627;51.322;22.816;2022-09-12T15:06:25;4.60;;;3.50;;
22922;SDS011;11627;51.322;22.816;2022-09-12T15:08:53;4.90;;;3.60;;
22922;SDS011;11627;51.322;22.816;2022-09-12T15:11:21;4.40;;;3.65;;
22922;SDS011;11627;51.322;22.816;2022-09-12T15:13:47;4.65;;;3.97;;
22922;SDS011;11627;51.322;22.816;2022-09-12T15:16:14;4.43;;;4.03;;
22922;SDS011;11627;51.322;22.816;2022-09-12T15:18:40;4.53;;;3.38;;
22922;SDS011;11627;51.322;22.816;2022-09-12T15:21:06;4.75;;;3.88;;
22922;SDS011;11627;51.322;22.816;2022-09-12T15:26:17;6.07;;;3.92;;
22922;SDS011;11627;51.322;22.816;2022-09-12T15:28:46;4.45;;;4.00;;
22922;SDS011;11627;51.322;22.816;2022-09-12T15:31:21;4.95;;;3.78;;
22922;SDS011;11627;51.322;22.816;2022-09-12T15:33:53;6.40;;;4.20;;
22922;SDS011;11627;51.322;22.816;2022-09-12T15:36:21;7.28;;;4.80;;
22922;SDS011;11627;51.322;22.816;2022-09-12T15:38:48;8.05;;;5.22;;
22922;SDS011;11627;51.322;22.816;2022-09-12T15:41:34;5.80;;;4.30;;
22922;SDS011;11627;51.322;22.816;2022-09-12T15:44:02;5.35;;;4.47;;
22922;SDS011;11627;51.322;22.816;2022-09-12T15:46:29;6.53;;;4.85;;
22922;SDS011;11627;51.322;22.816;2022-09-12T15:48:55;5.82;;;4.63;;
22922;SDS011;11627;51.322;22.816;2022-09-12T15:51:21;8.63;;;4.93;;
22922;SDS011;11627;51.322;22.816;2022-09-12T15:53:48;6.70;;;4.90;;
22922;SDS011;11627;51.322;22.816;2022-09-12T15:56:15;5.57;;;4.40;;
22922;SDS011;11627;51.322;22.816;2022-09-12T15:58:44;7.53;;;5.15;;
22922;SDS011;11627;51.322;22.816;2022-09-12T16:01:13;5.80;;;4.32;;
22922;SDS011;11627;51.322;22.816;2022-09-12T16:03:41;7.53;;;4.70;;
22922;SDS011;11627;51.322;22.816;2022-09-12T16:06:09;10.55;;;5.85;;
22922;SDS011;11627;51.322;22.816;2022-09-12T16:08:35;10.00;;;5.70;;
22922;SDS011;11627;51.322;22.816;2022-09-12T16:11:02;13.65;;;6.35;;
22922;SDS011;11627;51.322;22.816;2022-09-12T16:13:32;9.88;;;6.40;;
22922;SDS011;11627;51.322;22.816;2022-09-12T16:15:58;13.88;;;8.40;;
22922;SDS011;11627;51.322;22.816;2022-09-12T16:18:26;11.15;;;7.78;;
22922;SDS011;11627;51.322;22.816;2022-09-12T16:20:53;9.85;;;6.85;;
22922;SDS011;11627;51.322;22.816;2022-09-12T16:23:20;7.90;;;5.95;;
22922;SDS011;11627;51.322;22.816;2022-09-12T16:26:05;8.05;;;5.45;;
22922;SDS011;11627;51.322;22.816;2022-09-12T16:28:31;7.40;;;5.10;;
22922;SDS011;11627;51.322;22.816;2022-09-12T16:31:01;13.95;;;8.98;;
22922;SDS011;11627;51.322;22.816;2022-09-12T16:33:29;16.73;;;11.93;;
22922;SDS011;11627;51.322;22.816;2022-09-12T16:35:59;19.10;;;13.93;;
22922;SDS011;11627;51.322;22.816;2022-09-12T16:38:41;28.77;;;15.20;;
22922;SDS011;11627;51.322;22.816;2022-09-12T16:41:16;22.83;;;16.25;;
22922;SDS011;11627;51.322;22.816;2022-09-12T16:43:44;24.60;;;16.10;;
22922;SDS011;11627;51.322;22.816;2022-09-12T16:46:24;25.52;;;17.40;;
22922;SDS011;11627;51.322;22.816;2022-09-12T16:48:55;25.10;;;17.65;;
22922;SDS011;11627;51.322;22.816;2022-09-12T16:51:24;21.35;;;15.45;;
22922;SDS011;11627;51.322;22.816;2022-09-12T16:53:59;23.48;;;14.27;;
22922;SDS011;11627;51.322;22.816;2022-09-12T16:56:25;16.67;;;12.98;;
22922;SDS011;11627;51.322;22.816;2022-09-12T16:58:51;14.45;;;11.25;;
22922;SDS011;11627;51.322;22.816;2022-09-12T17:01:19;15.00;;;9.65;;
22922;SDS011;11627;51.322;22.816;2022-09-12T17:03:55;11.88;;;9.48;;
22922;SDS011;11627;51.322;22.816;2022-09-12T17:06:23;12.77;;;9.00;;
22922;SDS011;11627;51.322;22.816;2022-09-12T17:08:50;9.60;;;8.00;;
22922;SDS011;11627;51.322;22.816;2022-09-12T17:11:22;8.98;;;6.80;;
22922;SDS011;11627;51.322;22.816;2022-09-12T17:13:54;9.15;;;6.18;;
22922;SDS011;11627;51.322;22.816;2022-09-12T17:16:21;6.95;;;5.22;;
22922;SDS011;11627;51.322;22.816;2022-09-12T17:18:48;8.35;;;5.72;;
22922;SDS011;11627;51.322;22.816;2022-09-12T17:21:16;7.18;;;5.45;;
22922;SDS011;11627;51.322;22.816;2022-09-12T17:23:43;9.07;;;6.43;;
22922;SDS011;11627;51.322;22.816;2022-09-12T17:26:09;7.55;;;6.13;;
22922;SDS011;11627;51.322;22.816;2022-09-12T17:28:36;10.93;;;5.88;;
22922;SDS011;11627;51.322;22.816;2022-09-12T17:31:05;9.85;;;6.55;;
22922;SDS011;11627;51.322;22.816;2022-09-12T17:33:34;8.35;;;6.28;;
22922;SDS011;11627;51.322;22.816;2022-09-12T17:36:06;10.30;;;7.13;;
22922;SDS011;11627;51.322;22.816;2022-09-12T17:38:38;9.85;;;8.15;;
22922;SDS011;11627;51.322;22.816;2022-09-12T17:41:09;10.05;;;8.13;;
22922;SDS011;11627;51.322;22.816;2022-09-12T17:43:40;9.75;;;7.22;;
22922;SDS011;11627;51.322;22.816;2022-09-12T17:46:06;9.45;;;6.00;;
22922;SDS011;11627;51.322;22.816;2022-09-12T17:48:32;8.27;;;5.65;;
22922;SDS011;11627;51.322;22.816;2022-09-12T17:51:06;7.30;;;4.97;;
22922;SDS011;11627;51.322;22.816;2022-09-12T17:53:38;6.75;;;5.25;;
22922;SDS011;11627;51.322;22.816;2022-09-12T17:56:05;7.13;;;4.95;;
22922;SDS011;11627;51.322;22.816;2022-09-12T17:58:32;7.00;;;5.07;;
22922;SDS011;11627;51.322;22.816;2022-09-12T18:01:05;7.45;;;4.97;;
22922;SDS011;11627;51.322;22.816;2022-09-12T18:03:54;10.07;;;5.38;;
22922;SDS011;11627;51.322;22.816;2022-09-12T18:06:22;8.57;;;5.72;;
22922;SDS011;11627;51.322;22.816;2022-09-12T18:08:48;7.43;;;5.60;;
22922;SDS011;11627;51.322;22.816;2022-09-12T18:11:13;10.30;;;5.45;;
22922;SDS011;11627;51.322;22.816;2022-09-12T18:13:41;10.13;;;6.28;;
22922;SDS011;11627;51.322;22.816;2022-09-12T18:16:07;10.43;;;5.78;;
22922;SDS011;11627;51.322;22.816;2022-09-12T18:18:36;8.15;;;5.72;;
22922;SDS011;11627;51.322;22.816;2022-09-12T18:21:03;7.35;;;5.68;;
22922;SDS011;11627;51.322;22.816;2022-09-12T18:23:31;7.05;;;5.70;;
22922;SDS011;11627;51.322;22.816;2022-09-12T18:25:58;10.27;;;5.50;;
22922;SDS011;11627;51.322;22.816;2022-09-12T18:28:26;6.63;;;5.00;;
22922;SDS011;11627;51.322;22.816;2022-09-12T18:30:52;7.05;;;5.50;;
22922;SDS011;11627;51.322;22.816;2022-09-12T18:33:18;10.27;;;5.03;;
22922;SDS011;11627;51.322;22.816;2022-09-12T18:35:45;7.15;;;5.35;;
22922;SDS011;11627;51.322;22.816;2022-09-12T18:38:11;7.57;;;5.50;;
22922;SDS011;11627;51.322;22.816;2022-09-12T18:40:37;7.45;;;5.45;;
22922;SDS011;11627;51.322;22.816;2022-09-12T18:43:03;10.30;;;6.03;;